Time;durP1;ratioP1;P1;durP2;ratioP2;P2;SDS_P1;SDS_P2;PMS_P1;PMS_P2;Temp;Humidity;BMP_temperature;BMP_pressure;BME280_temperature;BME280_humidity;BME280_pressure;Samples;Min_cycle;Max_cycle;Signal;HPM_P1;HPM_P2
2023/07/08 00:01:22;;;;;;;5.03;3.50;;;20.50;70.40;;;20.54;50.35;101414.56;5033380;28;20286;-77
2023/07/08 00:03:54;;;;;;;6.63;3.50;;;20.50;71.00;;;20.49;50.33;101406.16;5033123;28;20194;-77
2023/07/08 00:06:28;;;;;;;3.70;3.30;;;20.50;70.70;;;20.48;50.79;101421.63;5033363;28;20258;-77
2023/07/08 00:09:02;;;;;;;3.70;3.00;;;20.40;71.10;;;20.30;50.45;101413.28;5033562;28;20277;-77
2023/07/08 00:11:34;;;;;;;5.37;3.37;;;20.20;71.90;;;20.12;51.05;101413.84;5032963;28;20661;-77
2023/07/08 00:14:06;;;;;;;5.10;3.47;;;20.10;71.80;;;20.04;51.15;101407.75;5033077;28;20187;-78
2023/07/08 00:16:38;;;;;;;3.53;2.97;;;20.00;72.60;;;20.07;51.32;101404.63;5033215;28;20219;-78
2023/07/08 00:19:13;;;;;;;4.90;3.70;;;20.00;72.50;;;20.02;50.94;101402.53;5033270;28;20266;-77
2023/07/08 00:21:45;;;;;;;5.10;3.10;;;20.00;72.30;;;19.94;50.85;101408.16;5033216;28;20187;-77
2023/07/08 00:24:18;;;;;;;5.80;3.37;;;20.00;71.60;;;19.91;51.28;101399.56;5033095;28;20199;-78
2023/07/08 00:26:50;;;;;;;4.70;3.30;;;19.80;72.40;;;19.89;50.84;101410.66;5033189;28;20261;-78
2023/07/08 00:29:22;;;;;;;6.00;3.33;;;19.90;71.80;;;19.88;51.07;101408.97;5036255;28;20195;-78
2023/07/08 00:31:54;;;;;;;5.73;3.33;;;19.90;72.20;;;19.90;51.62;101398.72;5036767;28;20672;-78
2023/07/08 00:34:26;;;;;;;4.90;3.57;;;19.80;72.90;;;19.85;51.79;101398.53;5036673;28;20261;-78
2023/07/08 00:36:58;;;;;;;5.03;3.53;;;19.90;73.10;;;19.72;52.15;101403.91;5036934;28;20191;-77
2023/07/08 00:39:31;;;;;;;4.00;3.47;;;19.60;73.90;;;19.71;51.96;101397.66;5036544;28;20277;-77
2023/07/08 00:42:11;;;;;;;4.93;3.63;;;19.80;73.90;;;19.69;52.33;101405.16;5036853;28;20286;-77
2023/07/08 00:44:44;;;;;;;5.27;3.30;;;19.70;74.30;;;19.72;52.09;101399.34;5036441;28;20776;-78
2023/07/08 00:47:18;;;;;;;5.07;3.60;;;19.80;73.90;;;19.55;52.44;101389.88;5036769;28;20197;-77
2023/07/08 00:49:56;;;;;;;6.20;3.60;;;19.60;74.80;;;19.58;52.81;101391.31;5036697;28;20199;-77
2023/07/08 00:52:31;;;;;;;6.50;3.53;;;19.70;74.90;;;19.59;52.96;101388.38;5036322;28;20563;-77
2023/07/08 00:55:10;;;;;;;4.63;3.97;;;19.60;75.20;;;19.51;53.49;101393.19;5036203;28;20301;-78
2023/07/08 00:57:46;;;;;;;4.50;3.70;;;19.60;75.30;;;19.41;53.56;101399.00;5036521;28;20229;-78
2023/07/08 01:00:20;;;;;;;6.50;3.50;;;19.50;75.60;;;19.37;53.74;101394.13;5036533;28;20222;-78
2023/07/08 01:02:57;;;;;;;6.23;3.70;;;19.40;75.90;;;19.18;54.30;101391.09;5036446;28;20277;-78
2023/07/08 01:05:34;;;;;;;5.07;3.67;;;19.10;76.60;;;19.19;54.12;101386.50;5036345;28;20261;-78
2023/07/08 01:08:09;;;;;;;5.53;3.80;;;19.10;77.00;;;19.19;54.46;101391.94;5036380;28;20283;-77
2023/07/08 01:10:50;;;;;;;5.37;3.43;;;19.10;77.50;;;19.14;54.71;101389.00;5036316;28;20280;-77
2023/07/08 01:13:23;;;;;;;5.70;3.70;;;19.20;77.40;;;19.12;54.31;101389.19;5035977;28;20286;-77
2023/07/08 01:15:55;;;;;;;4.00;3.50;;;19.10;77.60;;;18.97;54.65;101382.22;5036128;28;20301;-78
2023/07/08 01:18:28;;;;;;;4.60;4.00;;;19.00;77.80;;;18.91;54.43;101377.56;5036207;28;20195;-78
2023/07/08 01:21:06;;;;;;;6.70;3.80;;;18.90;77.20;;;18.94;54.69;101378.00;5036151;28;20303;-76
2023/07/08 01:23:39;;;;;;;4.40;3.57;;;19.00;77.40;;;18.89;54.53;101368.81;5036050;28;20194;-77
2023/07/08 01:26:11;;;;;;;4.27;3.67;;;18.90;77.00;;;18.81;54.19;101377.09;5035976;28;20305;-77
2023/07/08 01:28:43;;;;;;;5.43;3.80;;;18.90;77.20;;;18.86;54.37;101372.75;5036016;28;20230;-77
2023/07/08 01:31:15;;;;;;;5.70;3.90;;;18.90;77.10;;;18.83;54.28;101372.31;5035889;28;20193;-77
2023/07/08 01:33:47;;;;;;;3.90;3.60;;;18.90;77.00;;;18.81;54.73;101371.66;5035891;28;20206;-77
2023/07/08 01:36:20;;;;;;;4.00;3.60;;;18.80;77.60;;;18.81;55.07;101374.38;5035294;28;20314;-77
2023/07/08 01:38:54;;;;;;;5.43;3.80;;;18.90;78.00;;;18.69;54.81;101358.69;5035622;28;20286;-77
2023/07/08 01:41:26;;;;;;;4.10;3.40;;;18.80;77.80;;;18.72;54.50;101363.69;5035103;28;20201;-77
2023/07/08 01:43:58;;;;;;;3.73;3.43;;;18.80;77.40;;;18.65;55.03;101361.97;5035821;28;20281;-77
2023/07/08 01:46:31;;;;;;;6.27;4.03;;;18.70;78.20;;;18.51;55.47;101355.63;5035579;28;20227;-77
2023/07/08 01:49:04;;;;;;;4.07;3.67;;;18.60;79.30;;;18.55;55.36;101348.78;5035369;28;20505;-77
2023/07/08 01:51:37;;;;;;;4.43;3.63;;;18.60;79.20;;;18.48;55.83;101344.28;5035559;28;20303;-77
2023/07/08 01:54:10;;;;;;;4.87;3.90;;;18.60;79.80;;;18.50;55.34;101351.22;5035401;28;20268;-78
2023/07/08 01:56:42;;;;;;;5.47;3.90;;;18.70;79.30;;;18.39;55.70;101350.91;5034991;28;20640;-77
2023/07/08 01:59:14;;;;;;;4.33;3.67;;;18.50;80.20;;;18.33;55.68;101341.66;5035905;28;20201;-77
2023/07/08 02:01:47;;;;;;;5.23;4.10;;;18.40;80.00;;;18.30;56.24;101346.63;5035076;28;20633;-77
2023/07/08 02:04:19;;;;;;;4.07;3.63;;;18.40;80.00;;;18.28;55.76;101343.31;5035268;28;20198;-78
2023/07/08 02:06:54;;;;;;;4.83;4.07;;;18.30;80.20;;;18.27;56.33;101341.63;5035212;28;20191;-77
2023/07/08 02:09:28;;;;;;;4.40;4.00;;;18.60;80.70;;;18.29;56.73;101340.38;5035274;28;20281;-77
2023/07/08 02:12:00;;;;;;;5.20;4.00;;;18.40;81.10;;;18.32;56.01;101345.44;5035182;28;20567;-77
2023/07/08 02:14:32;;;;;;;4.87;3.77;;;18.50;80.70;;;18.25;56.66;101339.13;5035498;28;20261;-77
2023/07/08 02:17:05;;;;;;;4.40;4.00;;;18.40;81.40;;;18.30;56.77;101331.22;5034740;28;20676;-77
2023/07/08 02:19:37;;;;;;;5.93;4.53;;;18.40;81.70;;;18.29;56.33;101324.13;5035088;28;20286;-77
2023/07/08 02:22:09;;;;;;;5.97;4.23;;;18.50;81.50;;;18.24;56.33;101326.59;5034689;28;20191;-77
2023/07/08 02:24:42;;;;;;;6.10;4.03;;;18.40;81.50;;;18.22;56.75;101328.63;5034864;28;20222;-78
2023/07/08 02:27:14;;;;;;;6.47;3.80;;;18.40;81.20;;;18.19;57.01;101327.16;5034602;28;20649;-78
2023/07/08 02:29:46;;;;;;;4.27;3.80;;;18.30;81.20;;;18.15;57.20;101327.78;5034850;28;20195;-77
2023/07/08 02:32:18;;;;;;;4.60;4.20;;;18.30;81.60;;;18.12;56.88;101328.13;5034794;28;20287;-78
2023/07/08 02:34:51;;;;;;;8.27;4.60;;;18.30;81.40;;;18.06;56.93;101331.63;5034419;28;20242;-77
2023/07/08 02:37:23;;;;;;;4.13;3.70;;;18.20;81.40;;;18.02;57.42;101338.47;5034353;28;20624;-77
2023/07/08 02:39:57;;;;;;;6.03;4.43;;;18.20;81.90;;;17.91;57.27;101330.88;5034389;28;20285;-77
2023/07/08 02:42:29;;;;;;;6.20;4.50;;;18.10;82.20;;;17.90;57.95;101331.91;5034608;28;20286;-78
2023/07/08 02:45:01;;;;;;;5.57;4.07;;;18.00;84.10;;;17.94;57.44;101336.75;5034494;28;20237;-78
2023/07/08 02:47:32;;;;;;;5.03;4.50;;;18.10;82.90;;;17.89;57.70;101328.34;5034570;28;20213;-78
2023/07/08 02:50:04;;;;;;;5.20;4.30;;;18.00;82.50;;;17.88;57.73;101333.94;5034490;28;20274;-78
2023/07/08 02:52:36;;;;;;;4.67;4.03;;;18.00;83.20;;;17.83;57.64;101328.28;5033979;28;20721;-77
2023/07/08 02:55:11;;;;;;;5.13;4.27;;;18.00;83.10;;;17.82;57.44;101337.44;5033968;28;20684;-78
2023/07/08 02:57:43;;;;;;;4.63;3.90;;;18.00;83.20;;;17.73;58.41;101331.31;5034344;28;20194;-77
2023/07/08 03:00:18;;;;;;;5.07;4.10;;;18.00;83.70;;;17.69;58.40;101330.88;5034284;28;20289;-77
2023/07/08 03:02:50;;;;;;;5.43;4.13;;;17.80;83.60;;;17.66;58.74;101328.56;5034202;28;20248;-77
2023/07/08 03:05:22;;;;;;;5.77;4.67;;;17.80;84.20;;;17.59;58.91;101324.94;5034643;28;20230;-78
2023/07/08 03:07:54;;;;;;;5.53;4.40;;;17.80;84.20;;;17.44;58.88;101324.09;5034157;28;20219;-77
2023/07/08 03:10:27;;;;;;;5.30;4.80;;;17.60;85.30;;;17.41;59.24;101324.47;5034133;28;20282;-77
2023/07/08 03:12:59;;;;;;;7.33;4.60;;;17.60;86.00;;;17.44;59.89;101326.78;5034051;28;20286;-77
2023/07/08 03:15:31;;;;;;;5.03;4.17;;;17.60;86.30;;;17.34;60.05;101323.56;5033534;28;20674;-77
2023/07/08 03:18:03;;;;;;;5.20;4.70;;;17.50;86.80;;;17.27;59.98;101324.50;5033991;28;20278;-77
2023/07/08 03:20:36;;;;;;;5.80;5.00;;;17.50;87.00;;;17.24;59.76;101328.44;5033683;28;20688;-76
2023/07/08 03:23:08;;;;;;;7.10;5.20;;;17.50;87.10;;;17.30;60.07;101324.97;5033996;28;20619;-77
2023/07/08 03:25:42;;;;;;;4.80;4.30;;;17.50;87.10;;;17.19;59.91;101325.47;5033421;28;20641;-77
2023/07/08 03:28:14;;;;;;;5.97;4.53;;;17.40;87.70;;;17.12;60.12;101321.84;5033516;28;20187;-77
2023/07/08 03:30:51;;;;;;;5.17;4.20;;;17.30;89.50;;;17.11;60.53;101322.84;5033501;28;20541;-77
2023/07/08 03:33:23;;;;;;;5.10;4.60;;;17.30;88.90;;;17.10;60.75;101321.16;5033467;28;20277;-77
2023/07/08 03:35:56;;;;;;;5.40;4.60;;;17.30;89.10;;;17.08;60.35;101323.25;5033308;28;20262;-77
2023/07/08 03:38:28;;;;;;;8.30;4.63;;;17.30;88.90;;;17.02;60.60;101324.00;5033665;28;20277;-77
2023/07/08 03:41:01;;;;;;;6.77;4.60;;;17.30;89.30;;;17.02;60.64;101324.81;5033322;28;20716;-77
2023/07/08 03:43:33;;;;;;;6.27;5.10;;;17.30;89.80;;;17.04;61.18;101316.53;5033612;28;20187;-76
2023/07/08 03:46:05;;;;;;;5.10;4.60;;;17.30;90.00;;;16.98;61.55;101320.00;5033514;28;20258;-77
2023/07/08 03:48:37;;;;;;;6.30;4.73;;;17.20;90.10;;;17.05;60.66;101316.34;5033621;28;20214;-77
2023/07/08 03:51:11;;;;;;;5.13;4.63;;;17.30;90.10;;;17.05;61.18;101318.22;5033223;28;20694;-76
2023/07/08 03:53:43;;;;;;;5.03;4.60;;;17.30;90.20;;;17.00;62.31;101316.06;5033482;28;20278;-77
2023/07/08 03:56:17;;;;;;;7.80;4.97;;;17.20;90.40;;;16.99;62.39;101319.78;5033297;28;20236;-77
2023/07/08 03:58:50;;;;;;;7.33;5.27;;;17.30;90.60;;;17.05;61.62;101318.22;5033110;28;20603;-77
2023/07/08 04:01:25;;;;;;;6.03;4.80;;;17.30;90.70;;;17.06;61.53;101330.69;5033481;28;20230;-76
2023/07/08 04:04:00;;;;;;;5.97;4.80;;;17.30;91.10;;;17.06;61.63;101317.16;5038522;28;20536;-77
2023/07/08 04:06:34;;;;;;;6.13;5.37;;;17.30;90.90;;;17.03;61.26;101329.19;5040609;28;20197;-76
2023/07/08 04:09:06;;;;;;;6.03;5.10;;;17.30;90.80;;;17.00;62.18;101326.03;5040237;28;20282;-77
2023/07/08 04:11:40;;;;;;;5.67;4.67;;;17.20;91.10;;;16.96;61.96;101324.72;5040019;28;20222;-77
2023/07/08 04:14:13;;;;;;;5.27;4.77;;;17.30;90.90;;;16.97;61.79;101321.00;5039856;28;20202;-77
2023/07/08 04:16:56;;;;;;;5.87;5.23;;;17.20;91.00;;;16.95;62.67;101318.47;5039512;28;20662;-77
2023/07/08 04:19:28;;;;;;;5.20;4.70;;;17.30;91.10;;;16.89;62.59;101318.38;5039940;28;20190;-76
2023/07/08 04:22:02;;;;;;;8.33;5.00;;;17.20;91.40;;;16.91;62.51;101321.75;5039902;28;20253;-76
2023/07/08 04:24:33;;;;;;;6.17;5.57;;;17.20;91.50;;;16.89;62.57;101319.22;5039731;28;20233;-77
2023/07/08 04:27:12;;;;;;;7.83;5.60;;;17.20;91.70;;;16.90;63.00;101322.78;5039775;28;20221;-77
2023/07/08 04:29:44;;;;;;;6.93;5.10;;;17.20;91.40;;;16.84;62.76;101327.09;5039763;28;20190;-77
2023/07/08 04:32:16;;;;;;;8.20;6.17;;;17.20;91.80;;;16.76;63.64;101323.63;5039749;28;20282;-77
2023/07/08 04:34:48;;;;;;;6.20;5.60;;;17.10;91.80;;;16.75;63.47;101321.97;5039430;28;20270;-76
2023/07/08 04:37:20;;;;;;;7.10;5.57;;;17.10;92.10;;;16.75;63.69;101325.47;5039333;28;20673;-76
2023/07/08 04:39:52;;;;;;;7.33;5.43;;;17.10;92.10;;;16.72;63.94;101323.16;5039689;28;20198;-77
2023/07/08 04:42:28;;;;;;;7.77;5.57;;;17.10;92.20;;;16.71;63.22;101327.72;5039702;28;20264;-76
2023/07/08 04:45:00;;;;;;;6.50;5.70;;;17.10;92.30;;;16.77;63.48;101328.00;5039616;28;20261;-77
2023/07/08 04:47:33;;;;;;;6.10;5.43;;;17.10;92.40;;;16.77;62.96;101326.16;5039619;28;20192;-76
2023/07/08 04:50:06;;;;;;;6.30;5.20;;;17.20;92.40;;;16.75;64.01;101327.38;5039590;28;20664;-76
2023/07/08 04:52:37;;;;;;;7.23;5.50;;;17.10;92.30;;;16.75;63.69;101335.47;5039285;28;20191;-76
2023/07/08 04:55:11;;;;;;;6.83;5.10;;;17.10;92.40;;;16.77;63.87;101336.97;5040098;28;20261;-77
2023/07/08 04:57:44;;;;;;;7.40;5.23;;;17.20;92.40;;;16.81;63.47;101337.44;5039394;28;20294;-77
2023/07/08 05:00:19;;;;;;;13.30;5.60;;;17.20;92.40;;;16.80;64.25;101335.75;5039571;28;20183;-76
2023/07/08 05:02:53;;;;;;;8.07;5.80;;;17.20;92.80;;;16.85;64.47;101333.34;5039551;28;20194;-77
2023/07/08 05:05:25;;;;;;;6.40;5.60;;;17.20;92.70;;;16.90;63.38;101336.31;5039363;28;20230;-77
2023/07/08 05:07:57;;;;;;;8.50;6.20;;;17.30;92.40;;;16.90;63.38;101336.31;5039439;28;20187;-77
2023/07/08 05:10:29;;;;;;;7.20;5.87;;;17.30;92.60;;;16.95;63.33;101340.09;5039413;28;20190;-76
2023/07/08 05:13:03;;;;;;;6.50;5.67;;;17.40;92.80;;;16.95;64.25;101342.00;5039418;28;20241;-76
2023/07/08 05:15:35;;;;;;;9.20;5.70;;;17.40;92.80;;;16.97;64.85;101337.22;5036576;28;20227;-77
2023/07/08 05:18:07;;;;;;;6.73;5.97;;;17.40;92.90;;;16.91;63.44;101338.84;5035913;28;20673;-77
2023/07/08 05:20:39;;;;;;;7.23;6.07;;;17.30;92.80;;;16.90;64.04;101339.84;5036257;28;20196;-77
2023/07/08 05:23:11;;;;;;;5.77;4.97;;;17.30;93.10;;;16.97;63.31;101345.34;5036142;28;20226;-78
2023/07/08 05:25:43;;;;;;;7.03;5.50;;;17.40;93.00;;;17.00;64.02;101344.97;5036834;28;20269;-77
2023/07/08 05:28:16;;;;;;;6.40;5.80;;;17.40;93.10;;;16.99;63.54;101341.41;5036021;28;20274;-77
2023/07/08 05:30:48;;;;;;;6.23;5.53;;;17.40;93.10;;;17.00;63.57;101340.41;5036004;28;20278;-77
2023/07/08 05:33:20;;;;;;;6.43;5.53;;;17.40;93.20;;;17.01;64.80;101344.78;5035974;28;20369;-77
2023/07/08 05:35:52;;;;;;;6.90;5.93;;;17.40;93.40;;;17.06;64.30;101352.31;5035456;28;20687;-77
2023/07/08 05:38:24;;;;;;;6.10;5.20;;;17.50;93.50;;;17.11;64.24;101350.75;5036537;28;20294;-77
2023/07/08 05:41:00;;;;;;;6.77;5.73;;;17.60;93.30;;;17.16;64.16;101352.88;5035804;28;20283;-76
2023/07/08 05:43:34;;;;;;;6.30;5.70;;;17.60;93.40;;;17.16;64.28;101348.31;5035800;28;20202;-76
2023/07/08 05:46:06;;;;;;;8.37;5.30;;;17.60;93.20;;;17.21;63.91;101354.00;5035660;28;20317;-77
2023/07/08 05:48:43;;;;;;;5.97;5.47;;;17.70;93.30;;;17.27;64.26;101344.28;5035675;28;20187;-77
2023/07/08 05:51:17;;;;;;;6.50;5.40;;;17.70;93.40;;;17.32;65.18;101349.97;5035614;28;20192;-77
2023/07/08 05:53:49;;;;;;;6.03;5.47;;;17.80;93.90;;;17.37;63.78;101346.69;5035592;28;20278;-76
2023/07/08 05:56:20;;;;;;;11.63;5.73;;;17.90;93.40;;;17.41;64.13;101343.41;5035555;28;20317;-77
2023/07/08 05:58:54;;;;;;;6.93;5.20;;;17.90;93.10;;;17.44;63.58;101340.34;5035513;28;20306;-77
2023/07/08 06:01:26;;;;;;;5.43;4.93;;;17.90;93.20;;;17.50;63.44;101341.47;5035144;28;20564;-76
2023/07/08 06:03:59;;;;;;;6.00;5.40;;;18.00;93.10;;;17.54;63.40;101343.56;5035426;28;20191;-76
2023/07/08 06:06:31;;;;;;;7.40;5.30;;;18.10;92.80;;;17.61;62.06;101344.53;5035042;28;20192;-77
2023/07/08 06:09:03;;;;;;;6.73;5.37;;;18.10;92.40;;;17.64;62.46;101341.41;5035422;28;20222;-77
2023/07/08 06:11:35;;;;;;;5.77;5.17;;;18.10;92.30;;;17.71;62.40;101330.66;5035274;28;20198;-75
2023/07/08 06:14:08;;;;;;;7.87;5.30;;;18.30;92.40;;;17.74;61.57;101331.13;5035203;28;20231;-77
2023/07/08 06:16:41;;;;;;;6.57;4.73;;;18.30;92.10;;;17.79;62.37;101332.41;5034883;28;20651;-77
2023/07/08 06:19:17;;;;;;;6.47;5.10;;;18.30;92.20;;;17.85;62.46;101339.75;5034756;28;20211;-77
2023/07/08 06:21:48;;;;;;;7.37;5.43;;;18.40;92.40;;;17.87;62.31;101341.25;5034477;28;20206;-77
2023/07/08 06:24:20;;;;;;;6.37;5.30;;;18.40;92.30;;;17.94;62.78;101333.19;5034684;28;20565;-77
2023/07/08 06:26:52;;;;;;;6.20;5.33;;;18.50;92.50;;;18.03;61.74;101335.56;5034157;28;20584;-77
2023/07/08 06:29:29;;;;;;;5.90;4.80;;;18.70;92.10;;;18.09;62.66;101337.50;5034936;28;20201;-77
2023/07/08 06:32:01;;;;;;;6.83;5.63;;;18.70;92.70;;;18.14;62.51;101337.78;5034577;28;20635;-77
2023/07/08 06:34:33;;;;;;;6.13;5.00;;;18.70;92.10;;;18.18;61.98;101332.81;5034540;28;20340;-77
2023/07/08 06:37:05;;;;;;;5.50;4.80;;;18.80;92.00;;;18.22;63.45;101344.91;5034752;28;20287;-77
2023/07/08 06:39:39;;;;;;;6.03;5.20;;;18.80;92.20;;;18.29;62.06;101345.78;5035279;28;20281;-76
2023/07/08 06:42:13;;;;;;;8.73;5.50;;;18.90;91.90;;;18.36;61.84;101340.44;5034677;28;20191;-76
2023/07/08 06:44:50;;;;;;;6.47;5.20;;;19.00;91.90;;;18.46;61.25;101333.63;5034253;28;20724;-77
2023/07/08 06:47:25;;;;;;;6.87;5.17;;;19.00;91.80;;;18.54;61.52;101332.69;5034498;28;20195;-78
2023/07/08 06:49:58;;;;;;;6.03;5.17;;;19.10;91.60;;;18.59;60.57;101344.63;5034538;28;20200;-77
2023/07/08 06:52:33;;;;;;;5.73;5.13;;;19.20;91.10;;;18.70;60.27;101338.63;5034410;28;20197;-77
2023/07/08 06:55:08;;;;;;;6.30;5.00;;;19.30;91.10;;;18.73;61.29;101340.94;5034357;28;20260;-77
2023/07/08 06:57:40;;;;;;;6.97;5.27;;;19.30;91.50;;;18.84;59.38;101346.84;5034277;28;20297;-77
2023/07/08 07:00:15;;;;;;;10.80;5.50;;;19.50;90.50;;;18.89;59.52;101347.09;5034360;28;20230;-77
2023/07/08 07:02:47;;;;;;;7.10;5.20;;;19.50;90.50;;;18.94;61.05;101344.66;5034218;28;20230;-76
2023/07/08 07:05:18;;;;;;;5.53;5.00;;;19.50;91.20;;;18.98;60.24;101348.59;5034153;28;20256;-77
2023/07/08 07:07:54;;;;;;;5.47;4.97;;;19.60;90.80;;;19.11;59.78;101343.28;5034187;28;20277;-77
2023/07/08 07:10:26;;;;;;;7.20;5.03;;;19.70;90.60;;;19.20;59.59;101347.47;5034135;28;20286;-77
2023/07/08 07:12:58;;;;;;;7.70;5.43;;;19.90;90.50;;;19.31;59.41;101346.91;5033745;28;20646;-77
2023/07/08 07:15:32;;;;;;;5.50;4.83;;;20.00;90.30;;;19.43;58.78;101349.91;5034651;28;20235;-77
2023/07/08 07:18:04;;;;;;;5.87;5.20;;;20.00;90.00;;;19.49;58.33;101341.75;5033594;28;20219;-77
2023/07/08 07:20:37;;;;;;;7.60;5.10;;;20.10;89.60;;;19.50;60.91;101340.75;5033674;28;20663;-77
2023/07/08 07:23:09;;;;;;;5.23;4.63;;;20.10;91.10;;;19.58;61.26;101340.56;5033919;28;20282;-77
2023/07/08 07:25:41;;;;;;;5.60;4.63;;;20.20;91.00;;;19.64;60.39;101337.03;5033855;28;20237;-77
2023/07/08 07:28:13;;;;;;;5.53;5.00;;;20.30;90.50;;;19.79;58.31;101341.44;5033868;28;20245;-77
2023/07/08 07:30:47;;;;;;;6.47;5.20;;;20.40;89.40;;;19.86;58.55;101336.88;5033792;28;20226;-77
2023/07/08 07:33:19;;;;;;;5.53;4.73;;;20.50;89.90;;;19.88;60.21;101340.19;5033850;28;20190;-77
2023/07/08 07:35:50;;;;;;;7.93;4.30;;;20.50;90.40;;;20.02;58.04;101341.91;5033226;28;20241;-77
2023/07/08 07:38:24;;;;;;;6.63;4.80;;;20.70;89.10;;;20.05;58.49;101338.75;5032823;28;20218;-77
2023/07/08 07:40:59;;;;;;;7.80;5.20;;;20.70;89.50;;;20.16;57.92;101330.84;5033653;28;20187;-77
2023/07/08 07:43:32;;;;;;;7.27;5.13;;;20.80;88.70;;;20.23;58.22;101333.56;5033683;28;20218;-77
2023/07/08 07:46:05;;;;;;;6.63;5.30;;;20.80;89.40;;;20.34;58.57;101338.41;5033552;28;20230;-77
2023/07/08 07:48:37;;;;;;;6.20;4.60;;;21.00;89.30;;;20.38;58.24;101334.19;5033584;28;20208;-76
2023/07/08 07:51:10;;;;;;;6.70;5.00;;;21.00;89.00;;;20.43;59.74;101336.28;5033272;28;20290;-75
2023/07/08 07:53:42;;;;;;;5.30;4.80;;;21.10;90.40;;;20.62;56.04;101343.59;5033219;28;20229;-75
2023/07/08 07:56:14;;;;;;;5.17;4.50;;;21.30;86.30;;;20.80;56.33;101342.94;5033422;28;20262;-77
2023/07/08 07:58:46;;;;;;;5.40;4.73;;;21.50;86.10;;;20.89;56.31;101347.13;5033425;28;20246;-77
2023/07/08 08:01:19;;;;;;;5.93;4.47;;;21.50;86.30;;;20.87;58.47;101338.31;5033467;28;20231;-76
2023/07/08 08:03:52;;;;;;;6.40;4.80;;;21.50;89.30;;;21.16;56.59;101332.41;5033132;28;20191;-76
2023/07/08 08:06:24;;;;;;;5.17;4.47;;;21.70;86.90;;;21.32;55.42;101328.34;5033333;28;20296;-77
2023/07/08 08:08:56;;;;;;;5.93;4.97;;;21.90;85.50;;;21.28;56.37;101336.13;5033385;28;20187;-76
2023/07/08 08:11:29;;;;;;;5.30;4.80;;;22.00;86.40;;;21.38;56.06;101341.09;5033395;28;20191;-77
2023/07/08 08:14:04;;;;;;;10.97;5.10;;;22.00;86.00;;;21.45;55.50;101334.56;5033385;28;20291;-77
2023/07/08 08:16:37;;;;;;;6.17;4.57;;;22.10;85.10;;;21.56;55.06;101333.88;5033270;28;20186;-77
2023/07/08 08:19:09;;;;;;;5.70;4.67;;;22.20;85.10;;;21.75;54.56;101340.25;5033253;28;20214;-76
2023/07/08 08:21:40;;;;;;;4.87;4.43;;;22.40;84.10;;;21.84;54.56;101333.50;5033309;28;20213;-76
2023/07/08 08:24:14;;;;;;;5.10;4.50;;;22.40;83.90;;;21.98;54.66;101331.56;5033252;28;20195;-77
2023/07/08 08:26:47;;;;;;;4.97;4.47;;;22.60;83.90;;;21.96;55.34;101339.13;5032997;28;20676;-76
2023/07/08 08:29:19;;;;;;;5.10;4.60;;;22.60;84.40;;;22.13;54.00;101340.25;5032876;28;20231;-76
2023/07/08 08:31:54;;;;;;;6.17;4.60;;;22.80;83.40;;;22.21;53.86;101343.56;5032847;28;20285;-76
2023/07/08 08:34:26;;;;;;;5.77;4.23;;;22.80;82.40;;;22.36;53.95;101345.94;5032892;28;20272;-77
2023/07/08 08:37:04;;;;;;;4.73;4.33;;;23.00;82.30;;;22.38;56.58;101341.09;5033204;28;20274;-77
2023/07/08 08:39:35;;;;;;;14.93;5.53;;;23.00;85.00;;;22.63;51.92;101347.38;5033463;28;20207;-76
2023/07/08 08:42:18;;;;;;;5.03;4.30;;;23.30;80.20;;;22.68;53.33;101346.72;5033392;28;20282;-76
2023/07/08 08:44:57;;;;;;;6.10;4.10;;;23.30;80.70;;;22.78;52.99;101351.66;5033183;28;20257;-77
2023/07/08 08:47:39;;;;;;;6.10;4.57;;;23.40;82.20;;;22.94;53.09;101342.91;5033054;28;20241;-77
2023/07/08 08:50:29;;;;;;;5.30;4.40;;;23.60;80.90;;;22.97;53.08;101343.28;5035669;28;20183;-77
2023/07/08 08:53:04;;;;;;;5.57;3.90;;;23.70;81.50;;;23.03;54.24;101341.53;5036748;28;20195;-77
2023/07/08 08:55:36;;;;;;;4.73;4.20;;;23.60;81.70;;;23.08;53.34;101342.50;5036579;28;20317;-77
2023/07/08 08:58:33;;;;;;;5.70;4.37;;;23.70;80.90;;;23.32;52.31;101343.50;5036192;28;20637;-77
2023/07/08 09:01:12;;;;;;;5.47;4.60;;;23.80;81.40;;;23.59;49.83;101346.75;5037202;28;20221;-74
2023/07/08 09:03:53;;;;;;;5.50;4.60;;;24.10;78.30;;;23.76;48.73;101344.19;5036544;28;20243;-74
2023/07/08 09:06:31;;;;;;;7.27;4.40;;;24.30;75.10;;;23.75;50.24;101343.34;5036520;28;20231;-74
2023/07/08 09:09:16;;;;;;;5.53;4.83;;;24.40;76.30;;;23.79;50.37;101341.00;5036408;28;20218;-75
2023/07/08 09:11:55;;;;;;;8.23;6.77;;;24.40;77.30;;;23.97;49.39;101343.69;5036327;28;20278;-74
2023/07/08 09:14:31;;;;;;;8.45;5.47;;;24.50;75.90;;;24.27;48.64;101343.63;5036185;28;20413;-75
2023/07/08 09:17:21;;;;;;;8.10;4.43;;;24.80;75.50;;;24.44;47.71;101337.25;5036327;28;20286;-75
2023/07/08 09:20:07;;;;;;;7.07;6.30;;;25.10;73.30;;;24.53;49.00;101333.06;5034900;28;20239;-74
2023/07/08 09:22:45;;;;;;;5.27;4.77;;;25.10;73.60;;;24.59;50.67;101334.84;5036289;28;20278;-74
2023/07/08 09:25:34;;;;;;;6.57;5.65;;;25.20;76.30;;;24.66;50.64;101331.97;5036067;28;20261;-74
2023/07/08 09:28:06;;;;;;;6.72;4.80;;;25.20;76.20;;;24.83;48.53;101324.75;5036338;28;20214;-74
2023/07/08 09:30:39;;;;;;;6.82;6.10;;;25.30;73.50;;;24.93;50.30;101324.97;5036083;28;20217;-74
2023/07/08 09:33:13;;;;;;;5.18;4.70;;;25.50;75.80;;;25.14;45.94;101324.34;5035734;28;20230;-74
2023/07/08 09:35:49;;;;;;;12.60;5.50;;;25.60;71.30;;;25.33;46.18;101327.75;5035583;28;20274;-74
2023/07/08 09:38:25;;;;;;;7.38;6.40;;;25.80;70.90;;;25.50;45.48;101323.19;5035635;28;20217;-74
2023/07/08 09:40:57;;;;;;;10.55;6.85;;;26.00;70.80;;;25.48;48.00;101330.78;5035492;28;20746;-74
2023/07/08 09:43:38;;;;;;;8.10;4.53;;;26.10;72.70;;;25.68;43.79;101325.75;5035875;28;20278;-74
2023/07/08 09:46:15;;;;;;;7.35;5.32;;;26.20;69.50;;;25.91;43.69;101326.69;5035842;28;20254;-74
2023/07/08 09:48:46;;;;;;;6.70;4.05;;;26.30;68.90;;;25.97;44.75;101328.44;5035438;28;20637;-73
2023/07/08 09:51:23;;;;;;;5.28;4.32;;;26.50;68.90;;;26.08;44.96;101324.78;5035776;28;20233;-74
2023/07/08 09:53:55;;;;;;;7.28;5.72;;;26.70;69.20;;;26.02;45.05;101323.88;5035638;28;20281;-74
2023/07/08 09:56:28;;;;;;;6.30;4.57;;;26.60;68.90;;;26.09;45.26;101321.81;5035530;28;20233;-74
2023/07/08 09:59:00;;;;;;;8.02;6.63;;;26.60;69.70;;;26.30;42.00;101328.50;5035250;28;20637;-74
2023/07/08 10:01:34;;;;;;;6.53;5.93;;;26.80;65.80;;;26.49;42.03;101329.06;5034628;28;20226;-74
2023/07/08 10:04:07;;;;;;;7.03;6.30;;;27.00;65.80;;;26.51;41.89;101324.13;5036060;28;20195;-74
2023/07/08 10:06:40;;;;;;;5.15;4.65;;;27.10;64.50;;;26.79;42.30;101325.94;5035421;28;20191;-74
2023/07/08 10:09:25;;;;;;;5.95;4.53;;;27.30;64.70;;;26.98;40.42;101324.59;5035322;28;20291;-75
2023/07/08 10:12:02;;;;;;;5.53;4.65;;;27.50;62.60;;;27.07;40.73;101320.31;5035362;28;20195;-74
2023/07/08 10:14:43;;;;;;;8.15;7.20;;;27.50;62.40;;;27.08;42.48;101320.06;5035222;28;20317;-75
2023/07/08 10:17:21;;;;;;;12.90;10.27;;;27.60;64.80;;;27.33;40.21;101321.47;5035222;28;20199;-74
2023/07/08 10:19:53;;;;;;;8.82;7.90;;;27.70;61.90;;;27.29;42.80;101320.31;5034901;28;20688;-75
2023/07/08 10:22:39;;;;;;;6.50;5.22;;;27.80;64.60;;;27.47;40.93;101323.56;5035074;28;20285;-75
2023/07/08 10:25:23;;;;;;;4.65;4.25;;;27.90;61.90;;;27.71;38.12;101319.44;5034776;28;20795;-75
2023/07/08 10:28:04;;;;;;;5.03;4.50;;;28.20;58.60;;;27.74;39.81;101322.78;5035080;28;20191;-74
2023/07/08 10:30:49;;;;;;;6.70;6.00;;;28.20;61.80;;;27.87;36.94;101327.84;5034614;28;20641;-74
2023/07/08 10:33:47;;;;;;;6.88;5.60;;;28.30;57.50;;;27.94;38.52;101317.47;5034873;28;20203;-74
2023/07/08 10:36:30;;;;;;;9.15;7.75;;;28.40;58.90;;;28.12;36.36;101325.34;5034415;28;20234;-74
2023/07/08 10:39:50;;;;;;;7.65;5.05;;;28.40;57.60;;;28.36;35.64;101315.63;5034561;28;20618;-74
2023/07/08 10:42:43;;;;;;;6.60;5.72;;;28.70;56.30;;;28.24;38.07;101320.50;5009484;28;20206;-74